SBGLSBCB

Guest
Details From SBGL - Galeão Antonio Carlos Jombim
To SBCB - Cabo Frio
Flight Number -
Tags Generated
Created
Modified
Stats Distance 66 nm / 122 km
Max Altitude 0 ft / 0 m
Waypoints 2
Social Downloads 1
Likes 0
Share VATSIM

Download

Looking for another format? Having issues loading an existing format? Contact us
Advertisement - Login to hide

Notes

Generated

Route

SBGL SBCB

ID Type Via Altitude Latitude Longitude Leg Dist Tot Dist Heading (true) Name
O SBGL APT - 0 ft / 0 m -22.81244˚ -43.26360˚ - 0 nm - -
O SBCB APT - 0 ft / 0 m -22.92359˚ -42.08230˚ 65 nm 65 nm 96° / 96° -

Altitude Profile

Advertisement - Login to hide

SBGL

Details ICAO SBGL (GIG)
Name Galeao Antonio Carlos Jombim
Region Brazil
Timezone America/Sao_Paulo (UTC-2.0)
Stats Elevation 28 ft / 9 m (AMSL)
Location -22.808938° -43.243681°
Runways 2
Magnetic Variation 22.767° W

METAR

SBGL 122000Z 15013KT 9000 -DZ FEW014 OVC020 23/18 Q1016

Decode

TAF

TAF TAF SBGL 121430Z 1218/1324 17015KT 7000 BKN015 TN19/1308Z TX29/1317Z PROB30 1218/1221 4000 RA BR BKN012 BECMG 1221/1223 14010KT BECMG 1300/1302 10010KT BECMG 1303/1306 SCT015 BECMG 1307/1308 07005KT 4000 BR BKN012 BECMG 1310/1311 10010KT 7000 NSW SCT015 BECMG 1313/1315 15015KT 9999 SCT025 BECMG 1322/1323 10010KT FEW025 RMK PGS

Decode

Departure Runways

ID Width Length Bearing (true) Bearing (mag) Surface Threshold Offset Overrun Length
10 148 ft / 45 m 13,128 ft / 4,001 m 74.39° 97.16° Concrete 0 ft / 0 m 175 ft / 53 m
15 154 ft / 47 m 10,418 ft / 3,175 m 125.78° 148.55° Asphalt 0 ft / 0 m 185 ft / 56 m
28 148 ft / 45 m 13,128 ft / 4,001 m 254.38° 277.15° Concrete 0 ft / 0 m 175 ft / 53 m
33 154 ft / 47 m 10,418 ft / 3,175 m 305.78° 328.55° Asphalt 0 ft / 0 m 185 ft / 56 m

SBCB

Details ICAO SBCB (CFB)
Name CABO FRIO
Region Brazil
Timezone America/Sao_Paulo (UTC-2.0)
Stats Elevation 14 ft / 4 m (AMSL)
Location -22.921681° -42.074268°
Runways 1
Magnetic Variation 23.134° W

METAR

SBCB 122000Z 16010KT 9999 SCT012 BKN020 BKN045 25/22 Q1016

Decode

TAF

Not found

Destination Runways

ID Width Length Bearing (true) Bearing (mag) Surface Threshold Offset Overrun Length
10 98 ft / 30 m 5,574 ft / 1,699 m 75.53° 98.66° Asphalt 0 ft / 0 m 200 ft / 61 m
28 98 ft / 30 m 5,574 ft / 1,699 m 255.53° 278.66° Asphalt 0 ft / 0 m 200 ft / 61 m

Popular Alternatives